Time;durP1;ratioP1;P1;durP2;ratioP2;P2;SDS_P1;SDS_P2;PMS_P1;PMS_P2;Temp;Humidity;BMP_temperature;BMP_pressure;BME280_temperature;BME280_humidity;BME280_pressure;Samples;Min_cycle;Max_cycle;Signal;HPM_P1;HPM_P2
2024/02/07 00:00:56;;;;;;;;;16.00;11.00;;;;;12.38;79.29;100801.34;5044364;28;60503;-65
2024/02/07 00:03:22;;;;;;;;;15.67;10.00;;;;;12.38;79.15;100795.22;5040992;28;45408;-64
2024/02/07 00:05:48;;;;;;;;;12.25;9.50;;;;;12.42;79.27;100796.84;5040572;28;64489;-65
2024/02/07 00:08:13;;;;;;;;;8.75;8.75;;;;;12.46;79.26;100795.84;5042022;28;45333;-65
2024/02/07 00:10:38;;;;;;;;;10.75;8.50;;;;;12.48;79.21;100800.13;5042209;28;45488;-64
2024/02/07 00:13:04;;;;;;;;;11.50;9.50;;;;;12.51;79.46;100802.63;5039689;28;72323;-64
2024/02/07 00:15:29;;;;;;;;;9.75;8.00;;;;;12.54;78.84;100802.53;5041237;28;55224;-64
2024/02/07 00:17:55;;;;;;;;;11.25;9.00;;;;;12.54;78.92;100794.66;5041889;28;45363;-65
2024/02/07 00:20:20;;;;;;;;;21.50;11.75;;;;;12.57;79.18;100795.47;5042125;28;45485;-65
2024/02/07 00:22:46;;;;;;;;;15.00;10.50;;;;;12.57;79.33;100790.22;5041227;28;60269;-64
2024/02/07 00:25:11;;;;;;;;;9.50;5.00;;;;;12.56;79.30;100773.63;5040584;28;66477;-64
2024/02/07 00:27:37;;;;;;;;;14.25;9.50;;;;;12.58;79.03;100777.03;5042329;28;45363;-64
2024/02/07 00:30:03;;;;;;;;;6.75;6.75;;;;;12.59;79.42;100775.25;5042123;28;45552;-64
2024/02/07 00:32:28;;;;;;;;;9.00;8.75;;;;;12.60;79.44;100761.25;5041481;28;45371;-64
2024/02/07 00:34:53;;;;;;;;;23.25;21.25;;;;;12.61;79.40;100752.47;5040472;28;62089;-64
2024/02/07 00:37:19;;;;;;;;;17.25;13.50;;;;;12.62;79.23;100756.78;5040523;28;66743;-64
2024/02/07 00:39:44;;;;;;;;;8.25;7.00;;;;;12.62;78.80;100760.25;5043775;28;69294;-64
2024/02/07 00:42:10;;;;;;;;;10.00;10.00;;;;;12.62;79.08;100756.78;5023034;28;55913;-64
2024/02/07 00:44:36;;;;;;;;;12.25;8.75;;;;;12.63;78.76;100748.00;5040636;28;45680;-63
2024/02/07 00:47:01;;;;;;;;;8.50;8.00;;;;;12.64;79.30;100745.34;5041329;28;45478;-64
2024/02/07 00:49:27;;;;;;;;;10.00;8.25;;;;;12.65;79.19;100751.44;5039904;28;74381;-64
2024/02/07 00:51:52;;;;;;;;;11.00;8.00;;;;;12.66;78.86;100746.13;5040413;28;70768;-64
2024/02/07 00:54:17;;;;;;;;;9.00;8.50;;;;;12.65;78.91;100739.16;5055693;28;65556;-65
2024/02/07 00:56:43;;;;;;;;;8.25;7.50;;;;;12.66;78.76;100735.63;5040050;28;73150;-64
2024/02/07 00:59:08;;;;;;;;;14.75;9.50;;;;;12.64;78.93;100729.59;5038718;28;71167;-64
2024/02/07 01:01:33;;;;;;;;;15.00;10.00;;;;;12.63;79.14;100730.47;5040818;28;73198;-65
2024/02/07 01:03:59;;;;;;;;;12.00;10.00;;;;;12.63;79.09;100725.22;5040885;28;45418;-65
2024/02/07 01:06:24;;;;;;;;;19.75;11.75;;;;;12.64;79.18;100726.97;5039842;28;71770;-64
2024/02/07 01:08:49;;;;;;;;;15.25;8.25;;;;;12.64;78.92;100715.56;5039823;28;75836;-64
2024/02/07 01:11:15;;;;;;;;;11.00;8.75;;;;;12.64;78.90;100718.19;5040787;28;45375;-65
2024/02/07 01:13:40;;;;;;;;;14.50;8.00;;;;;12.62;79.19;100717.41;5040567;28;45632;-64
2024/02/07 01:16:05;;;;;;;;;13.00;8.00;;;;;12.59;78.98;100707.88;5039494;28;72063;-64
2024/02/07 01:18:31;;;;;;;;;12.25;7.00;;;;;12.59;78.95;100713.13;5041169;28;45419;-64
2024/02/07 01:20:56;;;;;;;;;13.50;8.00;;;;;12.60;79.09;100711.34;5039713;28;65912;-64
2024/02/07 01:23:21;;;;;;;;;12.00;10.00;;;;;12.58;79.59;100705.31;5040909;28;45253;-64
2024/02/07 01:25:47;;;;;;;;;11.50;9.00;;;;;12.57;79.52;100699.22;5041187;28;45581;-65
2024/02/07 01:28:12;;;;;;;;;13.75;11.00;;;;;12.57;79.17;100696.59;5039959;28;69319;-65
2024/02/07 01:30:38;;;;;;;;;10.00;9.00;;;;;12.57;79.61;100686.09;5041030;28;45338;-65
2024/02/07 01:33:03;;;;;;;;;13.00;11.00;;;;;12.59;79.54;100678.13;5040061;28;56545;-63
2024/02/07 01:35:30;;;;;;;;;8.75;7.50;;;;;12.56;79.70;100668.59;5040457;28;45343;-63
2024/02/07 01:38:04;;;;;;;;;15.25;10.25;;;;;12.57;79.44;100678.22;5040333;28;46115;-65
2024/02/07 01:40:38;;;;;;;;;11.00;7.25;;;;;12.58;79.58;100674.66;5042686;28;45414;-65
2024/02/07 01:43:03;;;;;;;;;11.75;9.25;;;;;12.54;79.47;100670.44;5040519;28;45252;-64
2024/02/07 01:45:30;;;;;;;;;11.50;8.00;;;;;12.56;79.37;100679.13;5039286;28;73091;-64
2024/02/07 01:47:56;;;;;;;;;10.75;9.00;;;;;12.57;79.61;100672.09;5040137;28;46240;-64
2024/02/07 01:50:21;;;;;;;;;10.50;3.00;;;;;12.54;79.70;100663.41;5040237;28;45314;-65
2024/02/07 01:52:48;;;;;;;;;12.50;9.50;;;;;12.57;79.84;100656.34;5056343;28;45269;-65
2024/02/07 01:55:14;;;;;;;;;9.75;8.25;;;;;12.56;79.26;100654.63;5040151;28;45396;-65
2024/02/07 01:57:40;;;;;;;;;14.00;10.75;;;;;12.56;79.45;100649.38;5055477;28;45514;-65
2024/02/07 02:00:08;;;;;;;;;10.00;10.00;;;;;12.53;79.92;100652.97;5039052;28;45819;-65
2024/02/07 02:02:33;;;;;;;;;8.50;8.00;;;;;12.53;79.69;100656.44;5040197;28;45338;-65
2024/02/07 02:04:58;;;;;;;;;13.50;9.75;;;;;12.54;80.00;100655.53;5038896;28;71799;-64
2024/02/07 02:07:24;;;;;;;;;10.50;8.75;;;;;12.59;79.51;100654.50;5039455;28;56639;-65
2024/02/07 02:09:50;;;;;;;;;12.00;9.75;;;;;12.59;79.87;100652.75;5023551;28;46149;-64
2024/02/07 02:12:15;;;;;;;;;17.50;9.00;;;;;12.61;79.59;100644.81;5037746;28;68286;-64
2024/02/07 02:14:41;;;;;;;;;18.00;8.25;;;;;12.62;79.98;100642.13;5039083;28;71916;-64
2024/02/07 02:17:07;;;;;;;;;12.75;9.75;;;;;12.62;79.89;100644.75;5039641;28;47354;-64
2024/02/07 02:19:32;;;;;;;;;13.75;10.25;;;;;12.63;79.62;100643.00;5039787;28;45240;-65
2024/02/07 02:22:32;;;;;;;;;11.00;7.75;;;;;12.63;79.52;100637.75;5072276;28;45291;-64
2024/02/07 02:25:18;;;;;;;;;14.00;8.00;;;;;12.62;79.78;100642.13;5038831;28;45478;-64
2024/02/07 02:28:07;;;;;;;;;10.75;7.00;;;;;12.63;79.89;100625.47;5040155;28;47376;-64
2024/02/07 02:30:33;;;;;;;;;12.50;9.00;;;;;12.63;79.48;100622.00;5037692;28;45738;-64
2024/02/07 02:33:03;;;;;;;;;10.50;8.00;;;;;12.64;79.32;100624.56;5038443;28;45513;-64
2024/02/07 02:35:29;;;;;;;;;12.50;8.00;;;;;12.66;79.63;100622.72;5038101;28;45338;-64
2024/02/07 02:37:54;;;;;;;;;10.00;8.00;;;;;12.66;79.81;100616.59;5054666;28;46251;-64
2024/02/07 02:40:19;;;;;;;;;12.75;7.00;;;;;12.69;79.64;100606.00;5040092;28;46595;-64
2024/02/07 02:42:45;;;;;;;;;8.00;7.50;;;;;12.65;79.21;100612.28;5039730;28;45588;-65
2024/02/07 02:45:10;;;;;;;;;11.00;8.00;;;;;12.69;79.34;100600.75;5040551;28;45341;-65
2024/02/07 02:47:35;;;;;;;;;9.00;7.75;;;;;12.69;79.57;100604.22;5037080;28;71255;-65
2024/02/07 02:50:01;;;;;;;;;14.25;8.00;;;;;12.70;79.36;100599.84;5036776;28;72067;-64
2024/02/07 02:52:28;;;;;;;;;10.50;7.25;;;;;12.68;79.56;100599.06;5039043;28;55758;-65
2024/02/07 02:54:54;;;;;;;;;9.25;7.75;;;;;12.70;79.61;100598.06;5054570;28;45427;-64
2024/02/07 02:57:19;;;;;;;;;11.00;8.25;;;;;12.71;79.02;100601.53;5038422;28;71118;-64
2024/02/07 02:59:48;;;;;;;;;12.00;10.75;;;;;12.69;79.30;100587.63;5038306;28;45363;-64
2024/02/07 03:02:13;;;;;;;;;14.75;9.75;;;;;12.70;79.36;100586.72;5036341;28;45330;-65
2024/02/07 03:04:41;;;;;;;;;14.75;9.00;;;;;12.71;79.50;100585.78;5038868;28;45560;-64
2024/02/07 03:07:36;;;;;;;;;10.25;8.00;;;;;12.72;79.47;100588.34;5039033;28;45731;-65
2024/02/07 03:10:02;;;;;;;;;12.50;8.25;;;;;12.71;79.28;100570.91;5039162;28;45959;-65
2024/02/07 03:12:28;;;;;;;;;9.00;7.00;;;;;12.71;79.16;100563.03;5038019;28;45304;-65
2024/02/07 03:14:53;;;;;;;;;11.25;9.00;;;;;12.71;79.13;100565.66;5037428;28;45432;-65
2024/02/07 03:17:19;;;;;;;;;12.75;9.00;;;;;12.73;79.23;100569.06;5039606;28;45307;-64
2024/02/07 03:19:46;;;;;;;;;13.50;10.75;;;;;12.74;78.89;100546.28;5038981;28;45572;-64
2024/02/07 03:22:12;;;;;;;;;13.50;9.50;;;;;12.74;79.15;100551.53;5039538;28;45342;-64
2024/02/07 03:24:39;;;;;;;;;12.75;8.00;;;;;12.74;78.79;100541.03;5039849;28;45682;-64
2024/02/07 03:27:05;;;;;;;;;10.75;8.00;;;;;12.72;78.86;100540.25;5070906;27;46077;-64
2024/02/07 03:29:32;;;;;;;;;9.00;7.50;;;;;12.72;79.04;100541.09;5038543;28;47484;-64
2024/02/07 03:31:58;;;;;;;;;10.00;7.50;;;;;12.73;79.03;100541.97;5039250;28;45369;-64
2024/02/07 03:34:23;;;;;;;;;11.25;7.00;;;;;12.71;79.15;100528.91;5039378;28;45436;-64
2024/02/07 03:36:48;;;;;;;;;13.25;8.75;;;;;12.69;79.30;100522.81;5038752;28;75415;-64
2024/02/07 03:39:14;;;;;;;;;7.75;7.75;;;;;12.72;79.56;100516.63;5043693;28;72836;-64
2024/02/07 03:41:42;;;;;;;;;10.75;8.25;;;;;12.71;79.46;100517.50;5044604;28;60178;-63
2024/02/07 03:44:12;;;;;;;;;9.50;8.75;;;;;12.72;79.70;100514.00;5042120;28;45395;-64
2024/02/07 03:46:37;;;;;;;;;19.25;9.00;;;;;12.69;79.57;100499.19;5042024;28;47400;-64
2024/02/07 03:49:03;;;;;;;;;13.00;8.00;;;;;12.71;80.05;100486.88;5042030;28;45381;-63
2024/02/07 03:51:28;;;;;;;;;12.75;8.50;;;;;12.69;80.26;100491.31;5027053;28;45517;-64
2024/02/07 03:53:54;;;;;;;;;8.50;7.25;;;;;12.70;79.98;100492.19;5042005;28;45336;-64
2024/02/07 03:56:20;;;;;;;;;15.00;9.50;;;;;12.70;80.09;100494.81;5041251;28;65478;-65
2024/02/07 03:58:45;;;;;;;;;10.00;8.25;;;;;12.68;80.75;100480.91;5041876;28;45447;-64
2024/02/07 04:01:15;;;;;;;;;16.00;10.75;;;;;12.68;80.52;100488.78;5041821;28;69432;-64
2024/02/07 04:03:41;;;;;;;;;9.50;7.50;;;;;12.68;80.58;100486.16;5041765;28;45352;-64
2024/02/07 04:06:06;;;;;;;;;13.75;9.75;;;;;12.67;80.44;100480.03;5041659;28;45213;-64
2024/02/07 04:08:34;;;;;;;;;13.00;10.25;;;;;12.67;80.73;100489.69;5041393;28;73230;-64
2024/02/07 04:11:00;;;;;;;;;12.75;8.50;;;;;12.66;80.88;100483.59;5073551;27;45505;-64
2024/02/07 05:16:12;;;;;;;;;11.50;9.75;;;;;12.43;86.79;100432.00;5043500;28;45542;-64
2024/02/07 05:18:37;;;;;;;;;16.50;11.00;;;;;12.41;86.76;100422.47;5048210;28;45457;-64
2024/02/07 05:21:03;;;;;;;;;10.75;10.50;;;;;12.40;85.35;100416.38;5073080;27;45468;-64
2024/02/07 05:23:28;;;;;;;;;9.50;7.75;;;;;12.39;85.00;100413.81;5041407;28;45308;-63
2024/02/07 05:25:57;;;;;;;;;14.00;11.75;;;;;12.38;84.78;100399.84;5073140;27;45396;-64
2024/02/07 05:28:22;;;;;;;;;7.00;7.00;;;;;12.38;84.85;100404.22;5040595;28;45275;-64
2024/02/07 05:30:47;;;;;;;;;13.25;9.00;;;;;12.35;85.39;100405.19;5040065;28;45165;-64
2024/02/07 05:33:13;;;;;;;;;15.75;10.00;;;;;12.35;85.14;100415.69;5039119;28;70045;-64
2024/02/07 05:35:38;;;;;;;;;19.00;10.75;;;;;12.34;85.58;100422.72;5072261;28;49455;-64
2024/02/07 05:38:03;;;;;;;;;18.00;11.25;;;;;12.31;85.35;100401.84;5040521;28;45311;-64
2024/02/07 05:40:29;;;;;;;;;12.50;8.00;;;;;12.34;85.33;100417.47;5044973;28;56996;-65
2024/02/07 05:42:55;;;;;;;;;16.00;10.75;;;;;12.35;85.83;100413.06;5040517;28;45349;-64
2024/02/07 05:45:20;;;;;;;;;14.25;10.25;;;;;12.36;85.51;100399.06;5040201;28;45363;-64
2024/02/07 05:47:46;;;;;;;;;9.75;9.00;;;;;12.39;85.39;100413.81;5072456;28;61308;-65
2024/02/07 05:50:11;;;;;;;;;9.75;9.75;;;;;12.35;85.55;100402.56;5042265;28;75607;-65
2024/02/07 05:52:38;;;;;;;;;12.25;9.50;;;;;12.36;85.58;100401.66;5046653;28;45431;-64
2024/02/07 05:55:04;;;;;;;;;11.25;10.00;;;;;12.35;85.81;100392.91;5040102;28;45407;-64
2024/02/07 05:57:30;;;;;;;;;13.75;10.75;;;;;12.32;85.98;100392.19;5040159;28;45368;-65
2024/02/07 05:59:55;;;;;;;;;15.75;9.75;;;;;12.33;86.16;100394.75;5039023;28;46221;-65
2024/02/07 06:02:20;;;;;;;;;9.00;8.00;;;;;12.33;86.03;100380.78;5038906;28;71991;-65
2024/02/07 06:04:49;;;;;;;;;12.75;9.00;;;;;12.34;86.08;100387.72;5038370;28;52671;-65
2024/02/07 06:07:14;;;;;;;;;11.75;10.00;;;;;12.33;86.45;100383.41;5037111;28;45334;-65
2024/02/07 06:09:40;;;;;;;;;10.25;8.50;;;;;12.33;86.45;100381.63;5039660;28;46337;-64
2024/02/07 06:12:06;;;;;;;;;12.00;9.75;;;;;12.35;86.66;100378.97;5040004;28;45304;-65
2024/02/07 06:14:32;;;;;;;;;12.00;9.75;;;;;12.34;86.30;100374.59;5039607;28;45431;-64
2024/02/07 06:16:57;;;;;;;;;15.50;9.00;;;;;12.33;86.30;100378.16;5046406;28;45342;-64
2024/02/07 06:19:23;;;;;;;;;13.25;10.25;;;;;12.33;86.54;100376.38;5039177;28;46802;-64
2024/02/07 06:21:51;;;;;;;;;16.00;9.50;;;;;12.33;86.55;100368.53;5040032;28;45442;-64
2024/02/07 06:24:16;;;;;;;;;11.25;10.00;;;;;12.33;87.08;100373.78;5072005;27;45303;-64
2024/02/07 06:26:41;;;;;;;;;11.00;8.75;;;;;12.32;86.58;100365.94;5038931;28;71196;-64
2024/02/07 06:29:07;;;;;;;;;16.25;8.00;;;;;12.32;87.16;100358.09;5038310;28;75677;-65
2024/02/07 06:31:32;;;;;;;;;15.25;10.50;;;;;12.33;86.80;100354.56;5039582;28;45267;-64
2024/02/07 06:33:57;;;;;;;;;13.00;10.00;;;;;12.32;86.62;100343.22;5039563;28;45600;-65
2024/02/07 06:36:23;;;;;;;;;12.25;9.00;;;;;12.30;86.80;100334.53;5038418;28;73366;-64
2024/02/07 06:38:48;;;;;;;;;12.75;11.00;;;;;12.30;87.11;100331.06;5038413;28;74090;-65
2024/02/07 06:41:13;;;;;;;;;17.00;9.00;;;;;12.28;87.16;100323.25;5048034;28;45337;-65
2024/02/07 06:43:39;;;;;;;;;16.25;12.25;;;;;12.29;87.49;100324.97;5039651;28;45372;-65
2024/02/07 06:46:04;;;;;;;;;15.00;10.75;;;;;12.27;87.40;100320.69;5038730;28;62019;-65
2024/02/07 06:48:29;;;;;;;;;12.50;9.75;;;;;12.29;87.40;100318.88;5070627;27;73539;-65
2024/02/07 06:50:55;;;;;;;;;14.75;10.25;;;;;12.26;87.27;100325.06;5039306;28;45305;-64
2024/02/07 06:53:20;;;;;;;;;14.75;11.50;;;;;12.25;87.53;100319.88;5038450;28;68299;-64
2024/02/07 06:55:45;;;;;;;;;14.25;10.00;;;;;12.24;87.65;100311.19;5038539;28;67051;-64
2024/02/07 06:58:11;;;;;;;;;16.00;10.75;;;;;12.24;87.59;100312.97;5039741;28;45916;-65
2024/02/07 07:00:36;;;;;;;;;12.25;9.50;;;;;12.25;87.20;100314.66;5037777;28;45331;-64
2024/02/07 07:03:02;;;;;;;;;15.25;10.00;;;;;12.26;87.38;100314.59;5039603;28;45436;-64
2024/02/07 07:05:27;;;;;;;;;10.75;6.00;;;;;12.26;87.52;100306.72;5040053;28;45465;-65
2024/02/07 07:07:53;;;;;;;;;4.00;4.00;;;;;12.26;87.79;100303.25;5038771;28;55634;-65
2024/02/07 07:10:18;;;;;;;;;14.25;10.25;;;;;12.27;87.57;100304.94;5038372;28;64582;-65
2024/02/07 07:12:44;;;;;;;;;13.50;11.50;;;;;12.29;87.40;100303.97;5040759;28;62905;-65
2024/02/07 07:15:12;;;;;;;;;13.75;9.75;;;;;12.30;87.60;100299.56;5045691;28;45388;-65
2024/02/07 07:17:37;;;;;;;;;14.75;12.25;;;;;12.30;87.34;100279.44;5042469;28;45618;-64
2024/02/07 07:20:03;;;;;;;;;13.50;9.25;;;;;12.31;87.28;100298.66;5042023;28;59025;-65
2024/02/07 07:22:28;;;;;;;;;12.75;10.00;;;;;12.32;86.99;100295.97;5074841;28;45468;-65
2024/02/07 07:24:53;;;;;;;;;16.25;9.00;;;;;12.33;86.94;100289.81;5042755;28;45198;-64
2024/02/07 07:27:19;;;;;;;;;13.50;9.50;;;;;12.34;87.36;100294.16;5042377;28;45295;-64
2024/02/07 07:29:44;;;;;;;;;16.50;10.00;;;;;12.35;87.06;100285.34;5041537;28;63868;-64
2024/02/07 07:32:09;;;;;;;;;13.50;11.25;;;;;12.36;86.94;100280.97;5042929;28;45413;-64
2024/02/07 07:34:35;;;;;;;;;13.75;11.50;;;;;12.36;86.97;100286.22;5042272;28;45394;-64
2024/02/07 07:37:01;;;;;;;;;10.75;10.00;;;;;12.37;87.32;100297.56;5041827;28;48407;-64
2024/02/07 07:39:27;;;;;;;;;16.25;11.75;;;;;12.38;87.44;100308.00;5046640;28;45889;-64
2024/02/07 07:41:52;;;;;;;;;15.25;10.00;;;;;12.38;87.10;100296.63;5042878;28;45514;-65
2024/02/07 07:44:17;;;;;;;;;14.00;11.00;;;;;12.40;86.98;100300.91;5041169;28;73179;-65
2024/02/07 07:46:43;;;;;;;;;12.75;10.00;;;;;12.44;86.61;100307.72;5040934;28;74039;-65
2024/02/07 07:49:09;;;;;;;;;19.50;11.25;;;;;12.45;87.17;100316.47;5043875;28;45349;-64
2024/02/07 07:51:34;;;;;;;;;8.00;7.00;;;;;12.46;87.02;100315.53;5042716;28;45413;-64
2024/02/07 07:54:00;;;;;;;;;16.75;11.00;;;;;12.48;86.99;100313.69;5041997;28;49337;-64
2024/02/07 07:56:30;;;;;;;;;15.75;10.00;;;;;12.48;86.66;100313.69;5041967;28;45174;-63
2024/02/07 07:58:56;;;;;;;;;17.00;10.00;;;;;12.53;86.22;100317.84;5050434;28;45454;-64
2024/02/07 08:01:21;;;;;;;;;10.25;9.25;;;;;12.54;86.19;100316.09;5039689;28;69430;-64
2024/02/07 08:03:47;;;;;;;;;16.25;12.00;;;;;12.56;86.48;100319.50;5041590;28;45532;-64
2024/02/07 08:06:12;;;;;;;;;13.25;11.00;;;;;12.56;86.41;100306.38;5044920;28;46647;-64
2024/02/07 08:08:38;;;;;;;;;18.75;11.50;;;;;12.59;86.09;100308.00;5043578;28;45348;-64
2024/02/07 08:11:03;;;;;;;;;14.00;10.50;;;;;12.62;86.51;100303.47;5041667;28;45328;-65
2024/02/07 08:13:29;;;;;;;;;13.50;10.50;;;;;12.65;85.67;100298.09;5041685;28;45434;-65
2024/02/07 08:15:54;;;;;;;;;14.50;11.25;;;;;12.65;85.57;100311.22;5041547;28;46324;-65
2024/02/07 08:18:19;;;;;;;;;14.00;12.00;;;;;12.67;85.26;100300.66;5041418;28;45430;-65
2024/02/07 08:20:45;;;;;;;;;14.50;9.50;;;;;12.69;85.47;100307.53;5041704;28;45741;-63
2024/02/07 08:23:12;;;;;;;;;11.50;9.50;;;;;12.71;85.29;100297.84;5043973;28;45317;-64
2024/02/07 08:25:37;;;;;;;;;12.25;11.00;;;;;12.73;84.70;100303.03;5042053;28;46713;-64
2024/02/07 08:28:03;;;;;;;;;15.75;10.25;;;;;12.76;84.98;100292.38;5040675;28;65380;-65
2024/02/07 08:30:28;;;;;;;;;15.00;12.00;;;;;12.79;84.83;100291.41;5041517;28;45271;-64
2024/02/07 08:32:55;;;;;;;;;19.25;12.25;;;;;12.79;84.93;100287.00;5056238;28;67017;-65
2024/02/07 08:35:20;;;;;;;;;14.00;10.25;;;;;12.84;84.55;100289.44;5073169;28;47027;-65
2024/02/07 08:37:46;;;;;;;;;16.50;11.00;;;;;12.83;84.43;100280.69;5040221;28;72031;-64
2024/02/07 08:40:11;;;;;;;;;10.75;10.00;;;;;12.86;84.51;100285.81;5049255;28;45513;-64
2024/02/07 08:42:37;;;;;;;;;20.00;13.25;;;;;12.88;84.56;100283.97;5040984;28;54368;-64
2024/02/07 08:45:03;;;;;;;;;14.75;9.00;;;;;12.91;83.98;100283.84;5041046;28;46249;-67
2024/02/07 08:47:29;;;;;;;;;15.50;13.00;;;;;12.94;83.91;100268.88;5039942;28;45316;-65
2024/02/07 08:49:54;;;;;;;;;15.00;13.00;;;;;12.95;83.66;100284.56;5040907;28;45258;-65
2024/02/07 08:52:20;;;;;;;;;14.25;13.25;;;;;12.90;83.26;100283.91;5041950;28;45452;-65
2024/02/07 08:54:45;;;;;;;;;12.75;11.00;;;;;12.94;83.14;100298.59;5044860;28;46033;-64
2024/02/07 08:57:11;;;;;;;;;14.75;11.75;;;;;12.94;82.92;100285.47;5041628;28;75400;-65
2024/02/07 08:59:36;;;;;;;;;14.00;10.00;;;;;12.95;82.78;100286.34;5043661;28;45563;-65
2024/02/07 09:02:01;;;;;;;;;17.00;12.75;;;;;12.92;83.17;100279.44;5043542;28;48112;-64
2024/02/07 09:04:27;;;;;;;;;9.75;9.25;;;;;12.94;82.71;100292.50;5056260;28;45654;-64
2024/02/07 09:06:52;;;;;;;;;15.50;13.00;;;;;12.97;83.19;100281.88;5042466;28;73332;-64
2024/02/07 09:09:17;;;;;;;;;15.75;11.75;;;;;13.00;83.09;100282.59;5045852;28;55219;-64
2024/02/07 09:11:43;;;;;;;;;18.50;11.50;;;;;13.02;82.62;100277.28;5043092;28;73210;-64
2024/02/07 09:14:08;;;;;;;;;18.00;12.00;;;;;13.03;82.32;100271.06;5044841;28;65782;-64
2024/02/07 09:16:33;;;;;;;;;20.25;13.75;;;;;13.03;82.41;100278.94;5042930;28;74183;-64
2024/02/07 09:18:59;;;;;;;;;15.00;11.75;;;;;13.05;82.78;100272.72;5043412;28;68110;-64
2024/02/07 09:21:27;;;;;;;;;19.50;13.00;;;;;13.06;82.97;100277.03;5045109;28;45788;-64
2024/02/07 09:23:52;;;;;;;;;14.25;11.50;;;;;13.03;83.11;100269.31;5049127;28;46325;-65
2024/02/07 09:26:17;;;;;;;;;16.50;13.25;;;;;13.02;82.64;100267.59;5044757;28;45299;-64
2024/02/07 09:28:43;;;;;;;;;20.00;12.00;;;;;13.02;83.21;100274.63;5047586;28;68259;-64
2024/02/07 09:31:09;;;;;;;;;16.75;10.50;;;;;12.97;83.11;100260.84;5044869;28;56113;-64
2024/02/07 09:33:34;;;;;;;;;21.25;15.75;;;;;12.96;83.03;100270.53;5048374;28;45452;-64
2024/02/07 09:35:59;;;;;;;;;13.25;11.00;;;;;12.94;82.92;100272.34;5044517;28;45247;-64
2024/02/07 09:38:26;;;;;;;;;15.50;10.75;;;;;12.90;83.23;100262.91;5055995;28;45709;-65
2024/02/07 09:40:55;;;;;;;;;15.00;12.00;;;;;12.91;83.10;100259.38;5043459;28;45494;-64
2024/02/07 09:43:22;;;;;;;;;15.25;12.75;;;;;12.86;83.68;100250.84;5039054;28;47338;-65
2024/02/07 09:45:54;;;;;;;;;22.00;13.25;;;;;12.90;83.40;100252.38;5040409;28;45765;-65
2024/02/07 09:48:21;;;;;;;;;23.00;14.50;;;;;12.92;83.87;100261.06;5040616;28;45383;-65
2024/02/07 09:50:47;;;;;;;;;17.50;13.00;;;;;12.93;83.62;100256.66;5039299;28;45296;-65
2024/02/07 09:53:14;;;;;;;;;19.00;13.25;;;;;12.93;84.11;100246.16;5040207;28;46390;-64
2024/02/07 09:55:39;;;;;;;;;21.75;14.00;;;;;12.90;84.10;100247.13;5038841;28;52770;-65
2024/02/07 09:58:06;;;;;;;;;16.50;12.00;;;;;12.90;83.82;100252.38;5039262;28;68178;-64
2024/02/07 10:00:31;;;;;;;;;16.25;13.50;;;;;12.91;84.38;100246.22;5044308;28;45364;-65
2024/02/07 10:02:57;;;;;;;;;16.50;13.00;;;;;12.90;84.34;100249.75;5042485;28;71793;-64
2024/02/07 10:05:28;;;;;;;;;16.00;12.75;;;;;12.91;84.81;100247.06;5050083;28;45601;-64
2024/02/07 10:07:54;;;;;;;;;15.75;12.50;;;;;12.88;84.99;100243.72;5053689;28;45324;-64
2024/02/07 10:10:19;;;;;;;;;17.50;14.00;;;;;12.92;85.04;100237.41;5057759;28;58355;-63
2024/02/07 10:12:44;;;;;;;;;21.75;15.00;;;;;12.96;84.93;100235.50;5054933;28;45261;-64
2024/02/07 10:15:10;;;;;;;;;20.25;12.00;;;;;12.99;84.45;100243.25;5090136;27;73095;-64
2024/02/07 10:17:35;;;;;;;;;15.00;12.50;;;;;12.98;84.25;100245.03;5056894;28;45249;-64
2024/02/07 10:20:09;;;;;;;;;17.25;10.25;;;;;12.96;84.31;100231.13;5049210;28;62568;-64
2024/02/07 10:22:38;;;;;;;;;19.75;12.25;;;;;13.00;84.60;100237.94;5054202;28;48165;-65
2024/02/07 10:25:09;;;;;;;;;15.00;11.50;;;;;12.98;84.49;100236.28;5059395;28;45700;-64
2024/02/07 10:27:34;;;;;;;;;15.50;12.00;;;;;12.98;84.37;100228.41;5058312;28;45287;-65
2024/02/07 10:30:08;;;;;;;;;18.00;12.25;;;;;12.96;84.43;100241.63;5091021;27;71928;-65
2024/02/07 10:32:33;;;;;;;;;12.75;11.50;;;;;12.98;85.12;100231.03;5058557;28;46099;-64
2024/02/07 10:34:59;;;;;;;;;15.00;12.25;;;;;12.98;84.69;100228.41;5059216;28;45409;-65
2024/02/07 10:37:24;;;;;;;;;9.50;7.25;;;;;12.99;85.12;100220.44;5056106;28;68344;-65
2024/02/07 10:39:49;;;;;;;;;13.75;10.75;;;;;12.98;84.73;100210.88;5081259;27;45318;-64
2024/02/07 10:42:15;;;;;;;;;14.25;8.25;;;;;13.01;84.93;100218.59;5069323;28;45468;-65
2024/02/07 10:44:40;;;;;;;;;18.25;11.00;;;;;13.04;84.89;100218.47;5038873;28;61602;-64
2024/02/07 10:47:08;;;;;;;;;51.00;35.00;;;;;13.03;84.58;100202.78;5039059;28;45231;-64
2024/02/07 10:49:33;;;;;;;;;17.50;12.50;;;;;13.02;84.71;100204.56;5039058;28;45400;-64
2024/02/07 10:51:58;;;;;;;;;14.25;12.00;;;;;13.04;84.77;100191.38;5038417;28;45805;-64
2024/02/07 10:54:25;;;;;;;;;15.25;10.50;;;;;13.10;84.97;100196.31;5038571;28;68955;-64
2024/02/07 10:56:55;;;;;;;;;14.00;10.50;;;;;13.16;84.58;100182.06;5039457;28;45503;-64
2024/02/07 10:59:21;;;;;;;;;10.50;10.25;;;;;13.17;84.69;100179.34;5039517;28;45276;-64
2024/02/07 11:01:46;;;;;;;;;12.50;9.75;;;;;13.17;84.51;100189.84;5020857;28;70061;-65
2024/02/07 11:04:12;;;;;;;;;12.50;9.50;;;;;13.21;84.04;100185.31;5039888;28;70264;-64
2024/02/07 11:06:37;;;;;;;;;13.50;7.50;;;;;13.20;83.95;100168.69;5039180;28;45250;-64
2024/02/07 11:09:04;;;;;;;;;13.50;8.50;;;;;13.20;84.13;100168.69;5054758;28;45369;-65
2024/02/07 11:11:29;;;;;;;;;12.50;9.00;;;;;13.18;84.17;100170.56;5038257;28;46260;-65
2024/02/07 11:13:57;;;;;;;;;9.75;8.75;;;;;13.17;83.66;100162.75;5039159;28;60578;-64
2024/02/07 11:16:23;;;;;;;;;13.00;9.00;;;;;13.14;83.90;100161.13;5038148;28;45388;-64
2024/02/07 11:18:48;;;;;;;;;52.00;40.00;;;;;13.15;83.81;100156.72;5038836;28;45505;-65
2024/02/07 11:21:18;;;;;;;;;15.25;11.00;;;;;13.14;83.71;100160.25;5039241;28;45476;-65
2024/02/07 11:23:46;;;;;;;;;6.75;5.00;;;;;13.09;83.68;100142.09;5037803;28;45938;-65
2024/02/07 11:26:12;;;;;;;;;15.00;9.25;;;;;13.15;83.81;100143.56;5037836;28;45428;-64
2024/02/07 11:28:37;;;;;;;;;9.00;8.00;;;;;13.15;83.78;100141.78;5038904;28;45514;-65
2024/02/07 11:31:05;;;;;;;;;10.25;9.00;;;;;13.13;83.79;100133.13;5038516;28;47865;-64
2024/02/07 11:33:37;;;;;;;;;9.25;9.25;;;;;13.15;83.76;100127.81;5038764;28;45387;-65
2024/02/07 11:36:07;;;;;;;;;11.50;8.25;;;;;13.21;84.03;100128.38;5054656;28;45367;-64
2024/02/07 11:38:36;;;;;;;;;14.75;8.25;;;;;13.28;83.66;100123.69;5069340;28;45342;-66
2024/02/07 11:41:06;;;;;;;;;13.00;10.00;;;;;13.33;83.63;100115.59;5039186;28;45267;-64
2024/02/07 11:43:35;;;;;;;;;13.25;11.00;;;;;13.37;83.43;100114.50;5037764;28;71080;-64
2024/02/07 11:46:05;;;;;;;;;14.50;8.25;;;;;13.42;83.36;100109.88;5038945;28;45367;-65
2024/02/07 11:48:37;;;;;;;;;11.25;9.50;;;;;13.42;83.35;100117.78;5043536;28;45317;-65
2024/02/07 11:51:09;;;;;;;;;13.25;10.25;;;;;13.40;83.27;100102.09;5038668;28;46220;-65
2024/02/07 11:53:39;;;;;;;;;14.25;11.00;;;;;13.42;83.47;100102.00;5027455;28;45372;-65
2024/02/07 11:56:12;;;;;;;;;13.50;10.00;;;;;13.41;83.27;100093.28;5038652;28;45396;-64
2024/02/07 11:58:38;;;;;;;;;11.00;8.75;;;;;13.41;83.28;100092.44;5041287;28;45315;-65
2024/02/07 12:01:07;;;;;;;;;11.50;9.00;;;;;13.39;83.52;100087.25;5057232;28;45405;-64
2024/02/07 12:03:33;;;;;;;;;11.50;9.75;;;;;13.36;83.28;100089.19;5041987;28;45299;-64
2024/02/07 12:05:58;;;;;;;;;19.75;17.25;;;;;13.36;83.68;100089.19;5041263;28;69348;-64
2024/02/07 12:08:25;;;;;;;;;22.25;17.25;;;;;13.33;83.78;100086.69;5041008;28;71662;-64
2024/02/07 12:10:51;;;;;;;;;10.25;7.25;;;;;13.30;83.99;100088.50;5041611;28;45905;-65
2024/02/07 12:13:16;;;;;;;;;8.75;7.75;;;;;13.29;83.99;100078.91;5041908;28;45363;-64